sensor_id;sensor_type;location;lat;lon;timestamp;pressure;altitude;pressure_sealevel;temperature;humidity
8627;BME280;4351;51.422;6.794;2023-05-07T00:00:45;101589.69;;;15.33;100.00
8627;BME280;4351;51.422;6.794;2023-05-07T00:03:13;101586.53;;;15.39;100.00
8627;BME280;4351;51.422;6.794;2023-05-07T00:05:41;101592.16;;;15.36;100.00
8627;BME280;4351;51.422;6.794;2023-05-07T00:08:09;101586.97;;;15.33;100.00
8627;BME280;4351;51.422;6.794;2023-05-07T00:10:37;101593.66;;;15.27;100.00
8627;BME280;4351;51.422;6.794;2023-05-07T00:13:04;101587.84;;;15.33;100.00
8627;BME280;4351;51.422;6.794;2023-05-07T00:15:32;101593.47;;;15.30;100.00
8627;BME280;4351;51.422;6.794;2023-05-07T00:18:01;101578.47;;;15.24;100.00
8627;BME280;4351;51.422;6.794;2023-05-07T00:20:29;101577.47;;;15.25;100.00
8627;BME280;4351;51.422;6.794;2023-05-07T00:22:59;101575.81;;;15.23;100.00
8627;BME280;4351;51.422;6.794;2023-05-07T00:25:27;101566.25;;;15.17;100.00
8627;BME280;4351;51.422;6.794;2023-05-07T00:27:54;101563.53;;;15.17;100.00
8627;BME280;4351;51.422;6.794;2023-05-07T00:30:23;101554.31;;;15.20;100.00
8627;BME280;4351;51.422;6.794;2023-05-07T00:32:51;101550.91;;;15.16;100.00
8627;BME280;4351;51.422;6.794;2023-05-07T00:35:20;101550.13;;;15.14;100.00
8627;BME280;4351;51.422;6.794;2023-05-07T00:37:48;101545.81;;;15.11;100.00
8627;BME280;4351;51.422;6.794;2023-05-07T00:40:16;101548.91;;;15.05;100.00
8627;BME280;4351;51.422;6.794;2023-05-07T00:42:44;101544.34;;;15.05;100.00
8627;BME280;4351;51.422;6.794;2023-05-07T00:45:13;101544.66;;;15.01;100.00
8627;BME280;4351;51.422;6.794;2023-05-07T00:47:42;101533.69;;;15.02;100.00
8627;BME280;4351;51.422;6.794;2023-05-07T00:50:10;101547.47;;;14.99;100.00
8627;BME280;4351;51.422;6.794;2023-05-07T00:52:40;101545.47;;;14.88;100.00
8627;BME280;4351;51.422;6.794;2023-05-07T00:55:09;101550.25;;;14.85;100.00
8627;BME280;4351;51.422;6.794;2023-05-07T00:57:39;101544.97;;;14.81;100.00
8627;BME280;4351;51.422;6.794;2023-05-07T01:00:08;101547.69;;;14.81;100.00
8627;BME280;4351;51.422;6.794;2023-05-07T01:02:37;101561.50;;;14.78;100.00
8627;BME280;4351;51.422;6.794;2023-05-07T01:05:08;101560.63;;;14.78;100.00
8627;BME280;4351;51.422;6.794;2023-05-07T01:07:38;101556.66;;;14.69;100.00
8627;BME280;4351;51.422;6.794;2023-05-07T01:10:10;101571.19;;;14.68;100.00
8627;BME280;4351;51.422;6.794;2023-05-07T01:12:39;101565.75;;;14.68;100.00
8627;BME280;4351;51.422;6.794;2023-05-07T01:15:09;101576.06;;;14.63;100.00
8627;BME280;4351;51.422;6.794;2023-05-07T01:17:40;101577.25;;;14.58;100.00
8627;BME280;4351;51.422;6.794;2023-05-07T01:20:15;101578.97;;;14.59;100.00
8627;BME280;4351;51.422;6.794;2023-05-07T01:22:45;101583.75;;;14.56;100.00
8627;BME280;4351;51.422;6.794;2023-05-07T01:25:14;101588.69;;;14.49;100.00
8627;BME280;4351;51.422;6.794;2023-05-07T01:27:47;101586.75;;;14.51;100.00
8627;BME280;4351;51.422;6.794;2023-05-07T01:30:15;101596.72;;;14.51;100.00
8627;BME280;4351;51.422;6.794;2023-05-07T01:32:48;101594.13;;;14.49;100.00
8627;BME280;4351;51.422;6.794;2023-05-07T01:35:18;101595.88;;;14.50;100.00
8627;BME280;4351;51.422;6.794;2023-05-07T01:37:49;101595.94;;;14.48;100.00
8627;BME280;4351;51.422;6.794;2023-05-07T01:40:17;101603.03;;;14.51;100.00
8627;BME280;4351;51.422;6.794;2023-05-07T01:42:45;101593.94;;;14.52;100.00
8627;BME280;4351;51.422;6.794;2023-05-07T01:45:14;101595.47;;;14.56;100.00
8627;BME280;4351;51.422;6.794;2023-05-07T01:47:42;101597.44;;;14.54;100.00
8627;BME280;4351;51.422;6.794;2023-05-07T01:50:12;101595.47;;;14.56;100.00
8627;BME280;4351;51.422;6.794;2023-05-07T01:52:40;101595.66;;;14.53;100.00
8627;BME280;4351;51.422;6.794;2023-05-07T01:55:09;101599.38;;;14.52;100.00
8627;BME280;4351;51.422;6.794;2023-05-07T01:57:37;101599.16;;;14.55;100.00
8627;BME280;4351;51.422;6.794;2023-05-07T02:00:06;101595.25;;;14.59;100.00
8627;BME280;4351;51.422;6.794;2023-05-07T02:02:42;101593.72;;;14.55;100.00
8627;BME280;4351;51.422;6.794;2023-05-07T02:05:20;101590.22;;;14.53;100.00
8627;BME280;4351;51.422;6.794;2023-05-07T02:07:55;101588.69;;;14.49;100.00
8627;BME280;4351;51.422;6.794;2023-05-07T02:10:26;101582.38;;;14.48;100.00
8627;BME280;4351;51.422;6.794;2023-05-07T02:12:55;101589.66;;;14.48;100.00
8627;BME280;4351;51.422;6.794;2023-05-07T02:15:23;101578.50;;;14.53;100.00
8627;BME280;4351;51.422;6.794;2023-05-07T02:17:59;101571.44;;;14.50;100.00
8627;BME280;4351;51.422;6.794;2023-05-07T02:20:27;101568.50;;;14.53;100.00
8627;BME280;4351;51.422;6.794;2023-05-07T02:22:55;101559.50;;;14.53;100.00
8627;BME280;4351;51.422;6.794;2023-05-07T02:25:27;101559.59;;;14.51;100.00
8627;BME280;4351;51.422;6.794;2023-05-07T02:27:55;101544.09;;;14.53;100.00
8627;BME280;4351;51.422;6.794;2023-05-07T02:30:32;101553.09;;;14.54;100.00
8627;BME280;4351;51.422;6.794;2023-05-07T02:33:00;101529.63;;;14.53;100.00
8627;BME280;4351;51.422;6.794;2023-05-07T02:35:28;101520.63;;;14.52;100.00
8627;BME280;4351;51.422;6.794;2023-05-07T02:37:56;101518.00;;;14.51;100.00
8627;BME280;4351;51.422;6.794;2023-05-07T02:40:24;101528.09;;;14.48;100.00
8627;BME280;4351;51.422;6.794;2023-05-07T02:42:54;101526.53;;;14.44;100.00
8627;BME280;4351;51.422;6.794;2023-05-07T02:45:22;101515.56;;;14.46;100.00
8627;BME280;4351;51.422;6.794;2023-05-07T02:47:52;101504.72;;;14.46;100.00
8627;BME280;4351;51.422;6.794;2023-05-07T02:50:20;101500.94;;;14.48;100.00
8627;BME280;4351;51.422;6.794;2023-05-07T02:52:48;101494.63;;;14.48;100.00
8627;BME280;4351;51.422;6.794;2023-05-07T02:55:15;101488.34;;;14.47;100.00
8627;BME280;4351;51.422;6.794;2023-05-07T02:57:43;101491.91;;;14.48;100.00
8627;BME280;4351;51.422;6.794;2023-05-07T03:00:15;101504.63;;;14.47;100.00
8627;BME280;4351;51.422;6.794;2023-05-07T03:02:59;101495.03;;;14.42;100.00
8627;BME280;4351;51.422;6.794;2023-05-07T03:05:28;101501.56;;;14.39;100.00
8627;BME280;4351;51.422;6.794;2023-05-07T03:07:55;101489.59;;;14.42;100.00
8627;BME280;4351;51.422;6.794;2023-05-07T03:10:23;101493.31;;;14.41;100.00
8627;BME280;4351;51.422;6.794;2023-05-07T03:12:51;101503.59;;;14.35;100.00
8627;BME280;4351;51.422;6.794;2023-05-07T03:15:20;101505.91;;;14.42;100.00
8627;BME280;4351;51.422;6.794;2023-05-07T03:17:48;101507.84;;;14.40;100.00
8627;BME280;4351;51.422;6.794;2023-05-07T03:20:16;101501.22;;;14.44;100.00
8627;BME280;4351;51.422;6.794;2023-05-07T03:22:44;101503.94;;;14.44;100.00
8627;BME280;4351;51.422;6.794;2023-05-07T03:25:12;101497.97;;;14.39;100.00
8627;BME280;4351;51.422;6.794;2023-05-07T03:27:40;101491.56;;;14.40;100.00
8627;BME280;4351;51.422;6.794;2023-05-07T03:30:10;101484.19;;;14.42;100.00
8627;BME280;4351;51.422;6.794;2023-05-07T03:32:40;101481.38;;;14.43;100.00
8627;BME280;4351;51.422;6.794;2023-05-07T03:35:10;101469.44;;;14.46;100.00
8627;BME280;4351;51.422;6.794;2023-05-07T03:37:39;101473.91;;;14.47;100.00
8627;BME280;4351;51.422;6.794;2023-05-07T03:40:09;101467.59;;;14.46;100.00
8627;BME280;4351;51.422;6.794;2023-05-07T03:42:46;101472.66;;;14.38;100.00
8627;BME280;4351;51.422;6.794;2023-05-07T03:45:15;101477.44;;;14.34;100.00
8627;BME280;4351;51.422;6.794;2023-05-07T03:47:50;101482.44;;;14.41;100.00
8627;BME280;4351;51.422;6.794;2023-05-07T03:50:20;101478.09;;;14.38;100.00
8627;BME280;4351;51.422;6.794;2023-05-07T03:52:48;101475.66;;;14.33;100.00
8627;BME280;4351;51.422;6.794;2023-05-07T03:55:19;101481.00;;;14.35;100.00
8627;BME280;4351;51.422;6.794;2023-05-07T03:57:52;101485.56;;;14.34;100.00
8627;BME280;4351;51.422;6.794;2023-05-07T04:00:20;101471.00;;;14.35;100.00
8627;BME280;4351;51.422;6.794;2023-05-07T04:02:50;101478.69;;;14.29;100.00
8627;BME280;4351;51.422;6.794;2023-05-07T04:05:25;101478.50;;;14.32;100.00
8627;BME280;4351;51.422;6.794;2023-05-07T04:07:57;101481.00;;;14.35;100.00
8627;BME280;4351;51.422;6.794;2023-05-07T04:10:33;101486.34;;;14.36;100.00
8627;BME280;4351;51.422;6.794;2023-05-07T04:13:05;101488.00;;;14.39;100.00
8627;BME280;4351;51.422;6.794;2023-05-07T04:15:35;101491.66;;;14.38;100.00
8627;BME280;4351;51.422;6.794;2023-05-07T04:18:08;101493.59;;;14.36;100.00
8627;BME280;4351;51.422;6.794;2023-05-07T04:20:37;101485.47;;;14.36;100.00
8627;BME280;4351;51.422;6.794;2023-05-07T04:23:09;101499.31;;;14.31;100.00
8627;BME280;4351;51.422;6.794;2023-05-07T04:25:37;101496.81;;;14.28;100.00
8627;BME280;4351;51.422;6.794;2023-05-07T04:28:30;101515.25;;;14.23;100.00
8627;BME280;4351;51.422;6.794;2023-05-07T04:30:58;101519.50;;;14.27;100.00
8627;BME280;4351;51.422;6.794;2023-05-07T04:33:28;101520.16;;;14.31;100.00
8627;BME280;4351;51.422;6.794;2023-05-07T04:35:57;101524.94;;;14.27;100.00
8627;BME280;4351;51.422;6.794;2023-05-07T04:38:30;101530.06;;;14.32;100.00
8627;BME280;4351;51.422;6.794;2023-05-07T04:41:03;101535.78;;;14.27;100.00
8627;BME280;4351;51.422;6.794;2023-05-07T04:43:34;101538.31;;;14.30;100.00
8627;BME280;4351;51.422;6.794;2023-05-07T04:46:02;101544.69;;;14.29;100.00
8627;BME280;4351;51.422;6.794;2023-05-07T04:48:31;101555.38;;;14.32;100.00
8627;BME280;4351;51.422;6.794;2023-05-07T04:51:01;101558.06;;;14.32;100.00
8627;BME280;4351;51.422;6.794;2023-05-07T04:53:29;101573.19;;;14.36;100.00
8627;BME280;4351;51.422;6.794;2023-05-07T04:55:57;101590.25;;;14.39;100.00
8627;BME280;4351;51.422;6.794;2023-05-07T04:58:31;101586.66;;;14.38;100.00
8627;BME280;4351;51.422;6.794;2023-05-07T05:01:00;101604.50;;;14.42;100.00
8627;BME280;4351;51.422;6.794;2023-05-07T05:03:28;101617.97;;;14.44;100.00
8627;BME280;4351;51.422;6.794;2023-05-07T05:06:00;101622.53;;;14.43;100.00
8627;BME280;4351;51.422;6.794;2023-05-07T05:08:31;101636.19;;;14.42;100.00
8627;BME280;4351;51.422;6.794;2023-05-07T05:11:01;101655.59;;;14.50;100.00
8627;BME280;4351;51.422;6.794;2023-05-07T05:13:32;101662.75;;;14.51;100.00
8627;BME280;4351;51.422;6.794;2023-05-07T05:16:05;101666.16;;;14.55;100.00
8627;BME280;4351;51.422;6.794;2023-05-07T05:18:34;101666.47;;;14.50;100.00
8627;BME280;4351;51.422;6.794;2023-05-07T05:21:03;101668.56;;;14.59;100.00
8627;BME280;4351;51.422;6.794;2023-05-07T05:23:32;101678.47;;;14.60;100.00
8627;BME280;4351;51.422;6.794;2023-05-07T05:26:00;101667.41;;;14.64;100.00
8627;BME280;4351;51.422;6.794;2023-05-07T05:28:31;101676.44;;;14.64;100.00
8627;BME280;4351;51.422;6.794;2023-05-07T05:30:58;101670.72;;;14.69;100.00
8627;BME280;4351;51.422;6.794;2023-05-07T05:33:30;101673.25;;;14.72;100.00
8627;BME280;4351;51.422;6.794;2023-05-07T05:36:05;101674.97;;;14.73;100.00
8627;BME280;4351;51.422;6.794;2023-05-07T05:38:36;101677.69;;;14.73;100.00
8627;BME280;4351;51.422;6.794;2023-05-07T05:41:04;101681.78;;;14.80;100.00
8627;BME280;4351;51.422;6.794;2023-05-07T05:43:31;101680.78;;;14.81;100.00
8627;BME280;4351;51.422;6.794;2023-05-07T05:45:59;101686.72;;;14.88;100.00
8627;BME280;4351;51.422;6.794;2023-05-07T05:48:28;101677.53;;;14.91;100.00
8627;BME280;4351;51.422;6.794;2023-05-07T05:50:58;101681.97;;;14.92;100.00
8627;BME280;4351;51.422;6.794;2023-05-07T05:53:27;101678.09;;;14.96;100.00
8627;BME280;4351;51.422;6.794;2023-05-07T05:55:55;101667.69;;;15.03;100.00
8627;BME280;4351;51.422;6.794;2023-05-07T05:58:23;101649.25;;;15.08;100.00
8627;BME280;4351;51.422;6.794;2023-05-07T06:00:56;101621.78;;;15.13;100.00
8627;BME280;4351;51.422;6.794;2023-05-07T06:03:26;101599.44;;;15.22;100.00
8627;BME280;4351;51.422;6.794;2023-05-07T06:05:56;101591.06;;;15.25;100.00
8627;BME280;4351;51.422;6.794;2023-05-07T06:08:28;101577.72;;;15.35;100.00
8627;BME280;4351;51.422;6.794;2023-05-07T06:10:56;101543.47;;;15.33;100.00
8627;BME280;4351;51.422;6.794;2023-05-07T06:13:24;101542.06;;;15.40;100.00
8627;BME280;4351;51.422;6.794;2023-05-07T06:15:55;101509.22;;;15.43;100.00
8627;BME280;4351;51.422;6.794;2023-05-07T06:18:22;101480.66;;;15.50;100.00
8627;BME280;4351;51.422;6.794;2023-05-07T06:20:51;101470.41;;;15.54;100.00
8627;BME280;4351;51.422;6.794;2023-05-07T06:23:24;101447.78;;;15.54;100.00
8627;BME280;4351;51.422;6.794;2023-05-07T06:25:53;101424.50;;;15.49;100.00
8627;BME280;4351;51.422;6.794;2023-05-07T06:28:26;101406.66;;;15.58;100.00
8627;BME280;4351;51.422;6.794;2023-05-07T06:30:54;101390.81;;;15.52;100.00
8627;BME280;4351;51.422;6.794;2023-05-07T06:33:22;101373.59;;;15.51;100.00
8627;BME280;4351;51.422;6.794;2023-05-07T06:35:50;101346.34;;;15.53;100.00
8627;BME280;4351;51.422;6.794;2023-05-07T06:38:19;101336.31;;;15.54;100.00
8627;BME280;4351;51.422;6.794;2023-05-07T06:40:49;101321.84;;;15.66;100.00
8627;BME280;4351;51.422;6.794;2023-05-07T06:43:18;101325.94;;;15.72;100.00
8627;BME280;4351;51.422;6.794;2023-05-07T06:45:53;101329.41;;;15.74;100.00
8627;BME280;4351;51.422;6.794;2023-05-07T06:48:21;101329.19;;;15.77;100.00
8627;BME280;4351;51.422;6.794;2023-05-07T06:50:56;101326.47;;;15.77;100.00
8627;BME280;4351;51.422;6.794;2023-05-07T06:53:24;101322.88;;;15.77;100.00
8627;BME280;4351;51.422;6.794;2023-05-07T06:55:55;101311.53;;;15.83;100.00
8627;BME280;4351;51.422;6.794;2023-05-07T06:58:24;101305.88;;;15.86;100.00
8627;BME280;4351;51.422;6.794;2023-05-07T07:00:52;101302.59;;;15.94;100.00
8627;BME280;4351;51.422;6.794;2023-05-07T07:03:21;101303.47;;;15.94;100.00
8627;BME280;4351;51.422;6.794;2023-05-07T07:05:51;101279.06;;;16.06;100.00
8627;BME280;4351;51.422;6.794;2023-05-07T07:08:19;101261.41;;;16.12;100.00
8627;BME280;4351;51.422;6.794;2023-05-07T07:10:49;101248.88;;;16.09;100.00
8627;BME280;4351;51.422;6.794;2023-05-07T07:13:16;101232.84;;;16.17;100.00
8627;BME280;4351;51.422;6.794;2023-05-07T07:15:46;101222.22;;;16.26;100.00
8627;BME280;4351;51.422;6.794;2023-05-07T07:18:14;101210.47;;;16.25;100.00
8627;BME280;4351;51.422;6.794;2023-05-07T07:20:42;101198.84;;;16.23;100.00
8627;BME280;4351;51.422;6.794;2023-05-07T07:23:11;101193.53;;;16.33;100.00
8627;BME280;4351;51.422;6.794;2023-05-07T07:25:38;101186.72;;;16.39;100.00
8627;BME280;4351;51.422;6.794;2023-05-07T07:28:07;101185.53;;;16.43;100.00
8627;BME280;4351;51.422;6.794;2023-05-07T07:30:37;101189.59;;;16.37;100.00
8627;BME280;4351;51.422;6.794;2023-05-07T07:33:07;101176.00;;;16.49;100.00
8627;BME280;4351;51.422;6.794;2023-05-07T07:35:36;101172.81;;;16.66;100.00
8627;BME280;4351;51.422;6.794;2023-05-07T07:38:05;101178.47;;;16.63;100.00
8627;BME280;4351;51.422;6.794;2023-05-07T07:40:34;101187.53;;;16.75;100.00
8627;BME280;4351;51.422;6.794;2023-05-07T07:43:03;101197.72;;;16.85;100.00
8627;BME280;4351;51.422;6.794;2023-05-07T07:45:32;101191.38;;;16.84;100.00
8627;BME280;4351;51.422;6.794;2023-05-07T07:48:00;101209.22;;;16.88;100.00
8627;BME280;4351;51.422;6.794;2023-05-07T07:50:33;101224.34;;;17.04;100.00
8627;BME280;4351;51.422;6.794;2023-05-07T07:53:12;101243.50;;;17.03;100.00
8627;BME280;4351;51.422;6.794;2023-05-07T07:55:40;101255.84;;;17.20;100.00
8627;BME280;4351;51.422;6.794;2023-05-07T07:58:11;101275.16;;;17.28;100.00
8627;BME280;4351;51.422;6.794;2023-05-07T08:00:39;101289.75;;;17.39;100.00
8627;BME280;4351;51.422;6.794;2023-05-07T08:03:09;101300.91;;;17.47;100.00
8627;BME280;4351;51.422;6.794;2023-05-07T08:05:43;101310.56;;;17.51;100.00
8627;BME280;4351;51.422;6.794;2023-05-07T08:08:11;101327.91;;;17.73;100.00
8627;BME280;4351;51.422;6.794;2023-05-07T08:10:40;101344.91;;;17.77;100.00
8627;BME280;4351;51.422;6.794;2023-05-07T08:13:17;101354.69;;;17.79;100.00
8627;BME280;4351;51.422;6.794;2023-05-07T08:15:46;101367.06;;;17.84;100.00
8627;BME280;4351;51.422;6.794;2023-05-07T08:18:14;101386.94;;;17.86;100.00
8627;BME280;4351;51.422;6.794;2023-05-07T08:20:46;101393.63;;;17.93;100.00
8627;BME280;4351;51.422;6.794;2023-05-07T08:23:18;101408.13;;;18.05;100.00
8627;BME280;4351;51.422;6.794;2023-05-07T08:25:46;101410.50;;;18.10;100.00
8627;BME280;4351;51.422;6.794;2023-05-07T08:28:15;101425.59;;;18.25;100.00
8627;BME280;4351;51.422;6.794;2023-05-07T08:30:43;101427.84;;;18.09;100.00
8627;BME280;4351;51.422;6.794;2023-05-07T08:33:11;101434.31;;;17.96;100.00
8627;BME280;4351;51.422;6.794;2023-05-07T08:35:39;101436.28;;;18.06;100.00
8627;BME280;4351;51.422;6.794;2023-05-07T08:38:11;101440.75;;;18.07;100.00
8627;BME280;4351;51.422;6.794;2023-05-07T08:40:40;101438.53;;;18.23;100.00
8627;BME280;4351;51.422;6.794;2023-05-07T08:43:14;101437.75;;;18.33;100.00
8627;BME280;4351;51.422;6.794;2023-05-07T08:45:45;101449.03;;;18.16;100.00
8627;BME280;4351;51.422;6.794;2023-05-07T08:48:16;101455.38;;;18.17;100.00
8627;BME280;4351;51.422;6.794;2023-05-07T08:50:51;101434.75;;;18.47;100.00
8627;BME280;4351;51.422;6.794;2023-05-07T08:53:21;101445.03;;;18.55;100.00
8627;BME280;4351;51.422;6.794;2023-05-07T08:55:51;101445.59;;;18.70;100.00
8627;BME280;4351;51.422;6.794;2023-05-07T08:58:20;101459.06;;;18.50;100.00
8627;BME280;4351;51.422;6.794;2023-05-07T09:00:49;101468.38;;;18.48;100.00
8627;BME280;4351;51.422;6.794;2023-05-07T09:03:19;101465.63;;;18.59;100.00
8627;BME280;4351;51.422;6.794;2023-05-07T09:05:50;101479.31;;;18.92;100.00
8627;BME280;4351;51.422;6.794;2023-05-07T09:08:25;101476.81;;;18.89;100.00
8627;BME280;4351;51.422;6.794;2023-05-07T09:10:56;101474.63;;;19.16;100.00
8627;BME280;4351;51.422;6.794;2023-05-07T09:13:26;101474.88;;;19.13;100.00
8627;BME280;4351;51.422;6.794;2023-05-07T09:15:55;101485.47;;;19.06;100.00
8627;BME280;4351;51.422;6.794;2023-05-07T09:18:24;101494.66;;;19.05;100.00
8627;BME280;4351;51.422;6.794;2023-05-07T09:20:54;101494.41;;;19.08;100.00
8627;BME280;4351;51.422;6.794;2023-05-07T09:23:26;101501.88;;;19.06;100.00
8627;BME280;4351;51.422;6.794;2023-05-07T09:26:00;101494.59;;;19.28;100.00
8627;BME280;4351;51.422;6.794;2023-05-07T09:28:32;101484.78;;;19.47;100.00
8627;BME280;4351;51.422;6.794;2023-05-07T09:31:00;101499.19;;;19.49;100.00
8627;BME280;4351;51.422;6.794;2023-05-07T09:33:29;101499.03;;;19.50;100.00
8627;BME280;4351;51.422;6.794;2023-05-07T09:36:02;101507.38;;;19.49;100.00
8627;BME280;4351;51.422;6.794;2023-05-07T09:38:34;101495.84;;;19.67;100.00
8627;BME280;4351;51.422;6.794;2023-05-07T09:41:05;101497.31;;;19.71;100.00
8627;BME280;4351;51.422;6.794;2023-05-07T09:43:41;101498.91;;;19.73;100.00
8627;BME280;4351;51.422;6.794;2023-05-07T09:46:13;101499.09;;;19.82;100.00
8627;BME280;4351;51.422;6.794;2023-05-07T09:48:48;101503.84;;;19.80;100.00
8627;BME280;4351;51.422;6.794;2023-05-07T09:51:22;101503.34;;;19.96;100.00
8627;BME280;4351;51.422;6.794;2023-05-07T09:53:56;101502.78;;;20.02;100.00
8627;BME280;4351;51.422;6.794;2023-05-07T09:56:25;101498.44;;;19.99;100.00
8627;BME280;4351;51.422;6.794;2023-05-07T09:58:54;101494.78;;;20.10;100.00
8627;BME280;4351;51.422;6.794;2023-05-07T10:01:24;101507.03;;;20.16;100.00
8627;BME280;4351;51.422;6.794;2023-05-07T10:03:53;101508.13;;;20.04;100.00
8627;BME280;4351;51.422;6.794;2023-05-07T10:06:23;101500.53;;;20.59;100.00
8627;BME280;4351;51.422;6.794;2023-05-07T10:08:52;101508.34;;;20.53;100.00
8627;BME280;4351;51.422;6.794;2023-05-07T10:11:22;101502.41;;;20.48;100.00
8627;BME280;4351;51.422;6.794;2023-05-07T10:13:52;101502.84;;;20.53;100.00
8627;BME280;4351;51.422;6.794;2023-05-07T10:16:20;101500.53;;;20.59;100.00
8627;BME280;4351;51.422;6.794;2023-05-07T10:18:49;101500.13;;;20.53;100.00
8627;BME280;4351;51.422;6.794;2023-05-07T10:21:23;101502.09;;;20.51;100.00
8627;BME280;4351;51.422;6.794;2023-05-07T10:23:58;101506.31;;;20.65;100.00
8627;BME280;4351;51.422;6.794;2023-05-07T10:26:32;101517.66;;;20.41;100.00
8627;BME280;4351;51.422;6.794;2023-05-07T10:29:07;101509.31;;;20.42;100.00
8627;BME280;4351;51.422;6.794;2023-05-07T10:31:53;101513.50;;;20.47;100.00
8627;BME280;4351;51.422;6.794;2023-05-07T10:34:28;101515.78;;;20.41;100.00
8627;BME280;4351;51.422;6.794;2023-05-07T10:36:57;101508.56;;;20.40;100.00
8627;BME280;4351;51.422;6.794;2023-05-07T10:39:26;101511.97;;;20.64;100.00
8627;BME280;4351;51.422;6.794;2023-05-07T10:41:56;101519.00;;;20.47;100.00
8627;BME280;4351;51.422;6.794;2023-05-07T10:44:25;101520.09;;;20.34;100.00
8627;BME280;4351;51.422;6.794;2023-05-07T10:47:06;101512.91;;;20.43;100.00
8627;BME280;4351;51.422;6.794;2023-05-07T10:50:23;101506.13;;;20.47;100.00
8627;BME280;4351;51.422;6.794;2023-05-07T10:53:25;101511.34;;;20.50;100.00
8627;BME280;4351;51.422;6.794;2023-05-07T10:56:25;101504.00;;;20.61;100.00
8627;BME280;4351;51.422;6.794;2023-05-07T10:59:35;101506.16;;;20.57;100.00
8627;BME280;4351;51.422;6.794;2023-05-07T11:05:35;101505.72;;;20.52;100.00
8627;BME280;4351;51.422;6.794;2023-05-07T11:08:19;101509.34;;;20.62;100.00
8627;BME280;4351;51.422;6.794;2023-05-07T11:10:57;101505.19;;;20.68;100.00
8627;BME280;4351;51.422;6.794;2023-05-07T11:13:48;101502.72;;;20.65;100.00
8627;BME280;4351;51.422;6.794;2023-05-07T11:16:27;101499.25;;;20.53;100.00
8627;BME280;4351;51.422;6.794;2023-05-07T11:19:05;101498.41;;;20.72;100.00
8627;BME280;4351;51.422;6.794;2023-05-07T11:21:40;101514.66;;;20.54;100.00
8627;BME280;4351;51.422;6.794;2023-05-07T11:24:38;101500.41;;;20.70;100.00
8627;BME280;4351;51.422;6.794;2023-05-07T11:27:07;101510.31;;;20.51;100.00
8627;BME280;4351;51.422;6.794;2023-05-07T11:29:36;101511.53;;;20.68;100.00
8627;BME280;4351;51.422;6.794;2023-05-07T11:32:08;101506.06;;;20.78;100.00
8627;BME280;4351;51.422;6.794;2023-05-07T11:34:42;101509.78;;;20.58;100.00
8627;BME280;4351;51.422;6.794;2023-05-07T11:37:16;101509.50;;;20.81;100.00
8627;BME280;4351;51.422;6.794;2023-05-07T11:40:05;101503.88;;;20.82;100.00
8627;BME280;4351;51.422;6.794;2023-05-07T11:42:34;101504.50;;;21.16;100.00
8627;BME280;4351;51.422;6.794;2023-05-07T11:45:04;101497.41;;;20.93;100.00
8627;BME280;4351;51.422;6.794;2023-05-07T11:47:33;101513.28;;;20.79;100.00
8627;BME280;4351;51.422;6.794;2023-05-07T11:50:04;101514.13;;;20.70;100.00
8627;BME280;4351;51.422;6.794;2023-05-07T11:52:35;101516.03;;;20.89;100.00
8627;BME280;4351;51.422;6.794;2023-05-07T11:55:03;101519.31;;;20.73;100.00
8627;BME280;4351;51.422;6.794;2023-05-07T11:57:32;101507.78;;;20.60;100.00
8627;BME280;4351;51.422;6.794;2023-05-07T12:00:01;101516.41;;;20.65;100.00
8627;BME280;4351;51.422;6.794;2023-05-07T12:02:38;101522.19;;;20.72;100.00
8627;BME280;4351;51.422;6.794;2023-05-07T12:05:06;101519.56;;;20.60;100.00
8627;BME280;4351;51.422;6.794;2023-05-07T12:07:36;101518.59;;;20.91;100.00
8627;BME280;4351;51.422;6.794;2023-05-07T12:10:04;101519.88;;;20.67;100.00
8627;BME280;4351;51.422;6.794;2023-05-07T12:12:38;101527.22;;;20.56;100.00
8627;BME280;4351;51.422;6.794;2023-05-07T12:15:07;101525.63;;;20.54;100.00
8627;BME280;4351;51.422;6.794;2023-05-07T12:17:37;101521.75;;;20.56;100.00
8627;BME280;4351;51.422;6.794;2023-05-07T12:20:06;101524.72;;;20.43;100.00
8627;BME280;4351;51.422;6.794;2023-05-07T12:22:36;101528.94;;;20.48;100.00
8627;BME280;4351;51.422;6.794;2023-05-07T12:25:05;101523.03;;;20.52;100.00
8627;BME280;4351;51.422;6.794;2023-05-07T12:27:37;101530.78;;;20.37;100.00
8627;BME280;4351;51.422;6.794;2023-05-07T12:30:05;101521.53;;;20.38;100.00
8627;BME280;4351;51.422;6.794;2023-05-07T12:32:33;101527.47;;;20.43;100.00
8627;BME280;4351;51.422;6.794;2023-05-07T12:35:05;101530.41;;;20.62;100.00
8627;BME280;4351;51.422;6.794;2023-05-07T12:37:36;101526.75;;;20.51;100.00
8627;BME280;4351;51.422;6.794;2023-05-07T12:40:05;101525.03;;;20.50;100.00
8627;BME280;4351;51.422;6.794;2023-05-07T12:42:35;101523.59;;;20.56;100.00
8627;BME280;4351;51.422;6.794;2023-05-07T12:45:08;101521.16;;;20.53;100.00
8627;BME280;4351;51.422;6.794;2023-05-07T12:47:36;101533.81;;;20.44;100.00
8627;BME280;4351;51.422;6.794;2023-05-07T12:50:06;101535.44;;;20.56;100.00
8627;BME280;4351;51.422;6.794;2023-05-07T12:52:34;101537.72;;;20.51;100.00
8627;BME280;4351;51.422;6.794;2023-05-07T12:55:06;101531.09;;;20.44;100.00
8627;BME280;4351;51.422;6.794;2023-05-07T12:57:38;101539.56;;;20.41;100.00
8627;BME280;4351;51.422;6.794;2023-05-07T13:00:08;101535.03;;;20.61;100.00
8627;BME280;4351;51.422;6.794;2023-05-07T13:02:38;101535.47;;;20.66;100.00
8627;BME280;4351;51.422;6.794;2023-05-07T13:05:07;101542.06;;;20.44;100.00
8627;BME280;4351;51.422;6.794;2023-05-07T13:07:36;101548.09;;;20.48;100.00
8627;BME280;4351;51.422;6.794;2023-05-07T13:10:06;101550.69;;;20.49;100.00
8627;BME280;4351;51.422;6.794;2023-05-07T13:12:34;101553.09;;;20.32;100.00
8627;BME280;4351;51.422;6.794;2023-05-07T13:15:03;101556.81;;;20.21;100.00
8627;BME280;4351;51.422;6.794;2023-05-07T13:17:31;101561.22;;;20.13;100.00
8627;BME280;4351;51.422;6.794;2023-05-07T13:19:59;101572.72;;;20.06;100.00
8627;BME280;4351;51.422;6.794;2023-05-07T13:22:27;101572.19;;;20.13;100.00